Airfield :
LOGIN :

Register | Disclaimer

   EN    FR    IT 

 










Legend :    VFR   Marginal VFR   IFR   Intensive IFR   Very Intensive IFR
Visi :
Ceiling :
>= 8 km
>= 3000ft
5 to 8 km
1000 to 3000 ft
1500m to 5 km
500 to 1000 ft
800 to 1500m
200 to 500 ft
< 800m
< 200 ft
Symbols :   Thunderstorms  Fog  Heavy snow  Heavy precipitations  Wind > 20 kt
SIGMETs :     Misc.  Thunderstorms  Icing  Turbulence  Mountain Waves  Volcanic Ashes






- Airport Elevation : 3006 ft
- IATA code : LEN


LELN - Leon

CURRENT METAR :
  • 152030Z AUTO 29005KT 260V320 CAVOK 00/M00 Q1007

EXPIRED METARs :
  • 152000Z 30005KT 260V350 9999 FEW016 SCT025 01/M00 Q1006
  • 151930Z 28005KT 240V330 9999 FEW016 SCT022 01/00 Q1007
  • 151900Z 25005KT 210V300 9999 FEW016 SCT035 01/00 Q1006
  • 151830Z 25008KT 210V270 9999 FEW015 SCT024 01/01 Q1006
  • 151800Z 26008KT 230V300 9999 FEW015 SCT030 02/01 Q1006

TAF TAF LELN
Valid from the 15 at 18:00 until the 16 at 03:00 UTC


151700Z 1518/1603 26006KT 9999 SCT030



MET'MAP, your aeronautical weather chart ! - Copyright ORBIFLY December 2007 - Disclaimer

ORBIFLY MET'MAP TEAM :

Programming & Development : Alexandra Zaïnal
Concept & Development : Baudouin d'Aumeries
Co-Development & Prog : Marc-Olivier Méhu
Technical & hardware support : Manuel Goepfert

Contact : metmap@orbifly.com




SOURCES & CREDITS :

   NOAA